Bemidji Regional Airport
KBJI : now visible

Airfield :











YOU CAN JOIN US ON...

 
LOGIN :

Register | Disclaimer

   EN    FR    IT 

 









Legend :    VFR   Marginal VFR   IFR   Intensive IFR   Very Intensive IFR
Visi :
Ceiling :
>= 8 km
>= 3000ft
5 to 8 km
1000 to 3000 ft
1500m to 5 km
500 to 1000 ft
800 to 1500m
200 to 500 ft
< 800m
< 200 ft
Symbols :   Thunderstorms  Fog  Heavy snow  Heavy precipitations  Wind > 20 kt






- Airport Elevation : 1391 ft


KBJI - Bemidji Regional

CURRENT METAR :
  • 181315Z AUTO 16010KT 10SM SCT032 SCT075 OVC085 12/08 A2978 RMK AO2 LTG DSNT NW T01200080

EXPIRED METARs :
  • 181255Z AUTO 18009G14KT 10SM OVC085 12/08 A2979 RMK AO2 LTG DSNT NW T01220084
  • 181235Z AUTO 18009KT 10SM SCT085 11/09 A2979 RMK AO2 LTG DSNT NW T01140090
  • 181215Z AUTO 16011KT 10SM SCT070 SCT090 SCT110 10/09 A2980 RMK AO2 T01000086
  • 181155Z AUTO 16008KT 10SM -DZ SCT028 SCT034 BKN039 10/09 A2983 RMK AO2 T01020085 10126 20090
  • 181135Z AUTO 19004KT 10SM RA BKN028 BKN032 OVC046 11/08 A2985 RMK AO2 T01080077
  • 181115Z AUTO 19003KT 10SM OVC046 11/08 A2986 RMK AO2 T01060075
  • 181055Z AUTO 00000KT 10SM BKN046 BKN075 OVC090 11/08 A2986 RMK AO2 T01050075
  • 181035Z AUTO 16005KT 10SM SCT075 BKN085 OVC110 10/07 A2986 RMK AO2 T01010073

TAF KBJI
Valid from the 18 at 12:00 until the 19 at 12:00 UTC


181120Z 1812/1912 18005KT P6SM VCTS BKN050CB
FM181800 24012G20KT P6SM VCSH BKN100
FM190200 30009KT P6SM SCT019
FM190600 33005KT P6SM BKN006
KZMP FIR / North America



MET'MAP, your aeronautical weather chart ! - Copyright ORBIFLY December 2007 - Disclaimer

ORBIFLY MET'MAP TEAM :

Programming & Development : Alexandra Zaïnal
Original concept : Baudouin d'Aumeries
Technical & hardware support : Manuel Goepfert
Assistance : Marc-Olivier Méhu

Contact : metmap@orbifly.com




SOURCES & CREDITS :

   NOAA       Earth
Advisory